Weather History for Grand Rapids, MN

Change the Weather History Date:

Monday, January 7, 2013

  Actual Average Record
Temperature  
Mean Temperature 24 °F -  
Max Temperature 37 °F 12 °F 46 °F (2003)
Min Temperature 12 °F -8 °F -37 °F (1973)
Degree Days  
Heating Degree Days 40    
Moisture  
Dew Point 17 °F    
Average Humidity 73    
Maximum Humidity 93    
Minimum Humidity 52    
Precipitation  
Precipitation 0.00 in - - ()
Sea Level Pressure  
Sea Level Pressure 29.75 in    
Wind  
Wind Speed 11 mph (SW)    
Max Wind Speed 20 mph    
Max Gust Speed 25 mph    
Visibility 10 miles    
Events      
Averages and records for this station are not official NWS values.
T = Trace of Precipitation, MM = Missing Value Source: NWS Daily Summary

Daily Weather History Graph

Daily Weather History Graph

Search for Another Location

Airport:

Trip Planner

Search our weather history database for the weather conditions in past years. The results will help you decide how hot, cold, wet, or windy it might be!

Date:

Astronomy

Jan. 07, 2013 Rise Set
Actual Time 7:59 AM CST 4:41 PM CST
Civil Twilight 7:24 AM CST 5:16 PM CST
Nautical Twilight 6:46 AM CST 5:55 PM CST
Astronomical Twilight 6:09 AM CST 6:32 PM CST
Moon 3:19 AM CST (1/7) 12:56 PM CST (1/7)
Length of Visible Light 9h 51m
Length of Day
8h 41m
Waning Crescent, 22% of the Moon is Illuminated
Jan 7
Waning Crescent
Jan 11
New
Jan 18
First Quarter
Jan 26
Full
Feb 3
Last Quarter

Hourly Weather History & Observations

Time (CST) Temp. Windchill Dew Point Humidity Pressure Visibility Wind Dir Wind Speed Gust Speed Precip Events Conditions
12:15 AM 12.2 °F -3.1 °F 6.8 °F 79% 29.84 in 10.0 mi SSE 13.8 mph 21.9 mph N/A   Clear
12:35 AM 12.2 °F -3.1 °F 8.6 °F 85% 29.81 in 10.0 mi SSE 13.8 mph 20.7 mph N/A   Clear
12:55 AM 12.2 °F -3.7 °F 8.6 °F 85% 29.78 in 10.0 mi SSE 15.0 mph - N/A   Clear
1:15 AM 12.2 °F -5.8 °F 8.6 °F 85% 29.77 in 10.0 mi SSE 19.6 mph 23.0 mph N/A   Clear
1:35 AM 12.2 °F -4.3 °F 8.6 °F 85% 29.77 in 10.0 mi South 16.1 mph 23.0 mph N/A   Clear
1:55 AM 12.2 °F -4.8 °F 8.6 °F 85% 29.76 in 10.0 mi South 17.3 mph - N/A   Clear
2:15 AM 12.2 °F -3.7 °F 8.6 °F 85% 29.75 in 10.0 mi South 15.0 mph 21.9 mph N/A   Clear
2:35 AM 12.2 °F -3.7 °F 8.6 °F 85% 29.75 in 10.0 mi South 15.0 mph 18.4 mph N/A   Clear
2:55 AM 12.2 °F -4.3 °F 8.6 °F 85% 29.73 in 10.0 mi South 16.1 mph 20.7 mph N/A   Clear
3:15 AM 14.0 °F -0.8 °F 10.4 °F 86% 29.73 in 10.0 mi South 13.8 mph - N/A   Clear
3:35 AM 14.0 °F 1.2 °F 10.4 °F 86% 29.73 in 10.0 mi South 10.4 mph - N/A   Clear
3:55 AM 12.2 °F -1.0 °F 10.4 °F 92% 29.72 in 10.0 mi South 10.4 mph - N/A   Clear
4:15 AM 14.0 °F 1.2 °F 10.4 °F 86% 29.71 in 10.0 mi South 10.4 mph - N/A   Clear
4:35 AM 14.0 °F 2.9 °F 10.4 °F 86% 29.72 in 10.0 mi South 8.1 mph - N/A   Clear
4:55 AM 14.0 °F 1.2 °F 10.4 °F 86% 29.70 in 10.0 mi South 10.4 mph - N/A   Clear
5:15 AM 14.0 °F 3.9 °F 10.4 °F 86% 29.71 in 10.0 mi South 6.9 mph - N/A   Clear
5:35 AM 15.8 °F 6.1 °F 10.4 °F 79% 29.70 in 10.0 mi South 6.9 mph - N/A   Clear
5:55 AM 15.8 °F 3.4 °F 10.4 °F 79% 29.68 in 10.0 mi South 10.4 mph - N/A   Clear
6:15 AM 15.8 °F 2.7 °F 12.2 °F 86% 29.67 in 10.0 mi South 11.5 mph - N/A   Partly Cloudy
6:35 AM 17.6 °F 8.2 °F 14.0 °F 86% 29.68 in 10.0 mi SSW 6.9 mph - N/A   Mostly Cloudy
6:55 AM 19.4 °F 8.6 °F 15.8 °F 86% 29.68 in 10.0 mi SSW 9.2 mph - N/A   Mostly Cloudy
7:15 AM 19.4 °F 10.4 °F 17.6 °F 93% 29.70 in 10.0 mi SW 6.9 mph - N/A   Clear
7:35 AM 21.2 °F 12.6 °F 15.8 °F 80% 29.69 in 10.0 mi SSW 6.9 mph - N/A   Clear
7:55 AM 21.2 °F 10.9 °F 17.6 °F 86% 29.69 in 10.0 mi SW 9.2 mph - N/A   Clear
8:15 AM 21.2 °F 10.1 °F 15.8 °F 80% 29.69 in 10.0 mi SSW 10.4 mph - N/A   Clear
8:35 AM 21.2 °F 10.1 °F 15.8 °F 80% 29.69 in 10.0 mi SSW 10.4 mph - N/A   Clear
8:55 AM 21.2 °F 10.9 °F 15.8 °F 80% 29.70 in 10.0 mi SSW 9.2 mph - N/A   Clear
9:15 AM 23.0 °F 14.7 °F 15.8 °F 74% 29.71 in 10.0 mi SSW 6.9 mph - N/A   Clear
9:35 AM 24.8 °F 14.6 °F 19.4 °F 80% 29.72 in 10.0 mi WSW 10.4 mph 16.1 mph N/A   Clear
9:55 AM 26.6 °F 17.5 °F 19.4 °F 74% 29.72 in 10.0 mi SW 9.2 mph 17.3 mph N/A   Clear
10:15 AM 26.6 °F 17.5 °F 19.4 °F 74% 29.73 in 10.0 mi SW 9.2 mph - N/A   Clear
10:35 AM 28.4 °F 18.5 °F 19.4 °F 69% 29.72 in 10.0 mi SW 11.5 mph 17.3 mph N/A   Clear
10:55 AM 28.4 °F 17.5 °F 21.2 °F 74% 29.72 in 10.0 mi WSW 13.8 mph 24.2 mph N/A   Clear
11:15 AM 30.2 °F 19.8 °F 21.2 °F 69% 29.71 in 10.0 mi SW 13.8 mph 17.3 mph N/A   Clear
11:35 AM 32.0 °F 24.8 °F 21.2 °F 64% 29.71 in 10.0 mi WSW 8.1 mph - N/A   Clear
11:55 AM 33.8 °F 25.3 °F 21.2 °F 60% 29.71 in 10.0 mi WSW 11.5 mph 18.4 mph N/A   Clear
12:15 PM 35.6 °F 27.1 °F 23.0 °F 60% 29.70 in 10.0 mi West 12.7 mph 20.7 mph N/A   Clear
12:35 PM 35.6 °F 27.1 °F 23.0 °F 60% 29.69 in 10.0 mi West 12.7 mph 23.0 mph N/A   Clear
12:55 PM 35.6 °F 27.5 °F 23.0 °F 60% 29.70 in 10.0 mi West 11.5 mph 25.3 mph N/A   Clear
1:15 PM 35.6 °F 26.6 °F 23.0 °F 60% 29.70 in 10.0 mi West 13.8 mph 20.7 mph N/A   Clear
1:35 PM 35.6 °F 27.5 °F 23.0 °F 60% 29.71 in 10.0 mi West 11.5 mph 21.9 mph N/A   Clear
1:55 PM 35.6 °F 28.0 °F 23.0 °F 60% 29.71 in 10.0 mi WSW 10.4 mph 23.0 mph N/A   Clear
2:15 PM 35.6 °F 28.0 °F 23.0 °F 60% 29.70 in 10.0 mi West 10.4 mph 17.3 mph N/A   Clear
2:35 PM 35.6 °F 27.5 °F 23.0 °F 60% 29.71 in 10.0 mi West 11.5 mph 20.7 mph N/A   Clear
2:55 PM 37.4 °F 28.5 °F 21.2 °F 52% 29.72 in 10.0 mi West 15.0 mph 25.3 mph N/A   Clear
3:15 PM 37.4 °F 28.2 °F 21.2 °F 52% 29.72 in 10.0 mi West 16.1 mph 24.2 mph N/A   Clear
3:35 PM 35.6 °F 28.6 °F 21.2 °F 56% 29.73 in 10.0 mi West 9.2 mph - N/A   Clear
3:55 PM 35.6 °F 28.6 °F 21.2 °F 56% 29.74 in 10.0 mi West 9.2 mph 18.4 mph N/A   Clear
4:15 PM 35.6 °F 27.5 °F 21.2 °F 56% 29.74 in 10.0 mi WSW 11.5 mph 16.1 mph N/A   Clear
4:35 PM 35.6 °F 29.9 °F 21.2 °F 56% 29.75 in 10.0 mi West 6.9 mph - N/A   Clear
4:55 PM 33.8 °F 25.8 °F 19.4 °F 56% 29.76 in 10.0 mi WNW 10.4 mph - N/A   Clear
5:15 PM 33.8 °F 27.0 °F 19.4 °F 56% 29.78 in 10.0 mi WNW 8.1 mph - N/A   Clear
5:35 PM 33.8 °F 27.0 °F 19.4 °F 56% 29.78 in 10.0 mi West 8.1 mph - N/A   Clear
5:55 PM 32.0 °F 26.4 °F 19.4 °F 60% 29.79 in 10.0 mi West 5.8 mph - N/A   Clear
6:15 PM 30.2 °F 24.3 °F 19.4 °F 64% 29.80 in 10.0 mi West 5.8 mph - N/A   Clear
6:35 PM 30.2 °F 23.4 °F 19.4 °F 64% 29.80 in 10.0 mi West 6.9 mph - N/A   Clear
6:55 PM 30.2 °F 22.6 °F 19.4 °F 64% 29.81 in 10.0 mi West 8.1 mph - N/A   Clear
7:15 PM 30.2 °F 23.4 °F 19.4 °F 64% 29.82 in 10.0 mi West 6.9 mph - N/A   Clear
7:35 PM 28.4 °F 23.3 °F 19.4 °F 69% 29.82 in 10.0 mi West 4.6 mph - N/A   Clear
7:55 PM 28.4 °F 23.3 °F 19.4 °F 69% 29.82 in 10.0 mi West 4.6 mph - N/A   Clear
8:15 PM 28.4 °F 23.3 °F 19.4 °F 69% 29.83 in 10.0 mi West 4.6 mph - N/A   Clear
8:35 PM 28.4 °F 22.2 °F 19.4 °F 69% 29.83 in 10.0 mi West 5.8 mph - N/A   Clear
8:55 PM 26.6 °F 20.0 °F 19.4 °F 74% 29.85 in 10.0 mi West 5.8 mph - N/A   Clear
9:15 PM 26.6 °F 20.0 °F 19.4 °F 74% 29.85 in 10.0 mi West 5.8 mph - N/A   Clear
9:35 PM 26.6 °F 19.1 °F 19.4 °F 74% 29.86 in 10.0 mi West 6.9 mph - N/A   Clear
9:55 PM 26.6 °F 20.0 °F 19.4 °F 74% 29.86 in 10.0 mi West 5.8 mph - N/A   Clear
10:15 PM 26.6 °F 18.2 °F 19.4 °F 74% 29.86 in 10.0 mi West 8.1 mph - N/A   Clear
10:35 PM 26.6 °F 18.2 °F 19.4 °F 74% 29.87 in 10.0 mi West 8.1 mph - N/A   Clear
10:55 PM 26.6 °F 19.1 °F 19.4 °F 74% 29.87 in 10.0 mi West 6.9 mph - N/A   Clear
11:15 PM 24.8 °F 16.9 °F 19.4 °F 80% 29.87 in 10.0 mi WNW 6.9 mph - N/A   Clear
11:35 PM 24.8 °F 16.9 °F 17.6 °F 74% 29.87 in 10.0 mi WNW 6.9 mph - N/A   Clear
11:55 PM 24.8 °F 19.1 °F 17.6 °F 74% 29.87 in 10.0 mi West 4.6 mph - N/A   Clear